createdAt,value
2022-09-21T00:00:44.757Z,9.60
2022-09-21T00:03:12.927Z,7.68
2022-09-21T00:05:42.384Z,10.52
2022-09-21T00:08:11.493Z,5.35
2022-09-21T00:10:39.702Z,8.57
2022-09-21T00:13:08.872Z,5.75
2022-09-21T00:15:36.940Z,7.03
2022-09-21T00:18:05.066Z,6.65
2022-09-21T00:20:33.114Z,7.68
2022-09-21T00:23:02.515Z,7.78
2022-09-21T00:25:30.617Z,5.07
2022-09-21T00:27:58.772Z,8.48
2022-09-21T00:30:26.890Z,3.78
2022-09-21T00:32:54.920Z,5.43
2022-09-21T00:35:23.038Z,7.03
2022-09-21T00:37:51.069Z,4.15
2022-09-21T00:40:20.601Z,5.90
2022-09-21T00:42:48.746Z,5.20
2022-09-21T00:45:21.211Z,5.00
2022-09-21T00:47:49.992Z,6.10
2022-09-21T00:50:19.858Z,4.88
2022-09-21T00:52:49.886Z,4.72
2022-09-21T00:55:20.929Z,6.32
2022-09-21T00:57:49.209Z,11.40
2022-09-21T01:00:17.232Z,5.97
2022-09-21T01:02:45.338Z,3.97
2022-09-21T01:05:13.791Z,10.65
2022-09-21T01:07:43.242Z,7.70
2022-09-21T01:10:12.956Z,7.15
2022-09-21T01:12:49.220Z,5.05
2022-09-21T01:15:26.798Z,5.63
2022-09-21T01:18:00.080Z,4.43
2022-09-21T01:20:54.532Z,4.97
2022-09-21T01:23:35.901Z,5.15
2022-09-21T01:26:08.051Z,4.72
2022-09-21T01:28:56.311Z,8.77
2022-09-21T01:31:26.644Z,5.10
2022-09-21T01:33:56.946Z,4.95
2022-09-21T01:36:26.785Z,5.80
2022-09-21T01:38:56.869Z,7.28
2022-09-21T01:41:26.219Z,5.60
2022-09-21T01:43:57.106Z,4.38
2022-09-21T01:46:28.287Z,4.47
2022-09-21T01:48:57.386Z,7.07
2022-09-21T01:51:26.565Z,5.10
2022-09-21T01:53:56.745Z,5.20
2022-09-21T01:56:26.545Z,3.92
2022-09-21T01:58:58.840Z,3.95
2022-09-21T02:01:27.233Z,4.35
2022-09-21T02:03:56.438Z,4.05
2022-09-21T02:06:26.018Z,6.13
2022-09-21T02:08:54.183Z,4.88
2022-09-21T02:11:22.258Z,5.40
2022-09-21T02:13:52.246Z,4.05
2022-09-21T02:16:34.131Z,8.10
2022-09-21T02:19:10.842Z,4.68
2022-09-21T02:21:45.938Z,3.90
2022-09-21T02:24:15.561Z,4.13
2022-09-21T02:26:46.677Z,6.53
2022-09-21T02:29:18.461Z,3.67
2022-09-21T02:31:50.663Z,3.95
2022-09-21T02:34:21.692Z,5.72
2022-09-21T02:36:51.018Z,2.88
2022-09-21T02:39:19.675Z,4.80
2022-09-21T02:41:53.620Z,3.45
2022-09-21T02:44:22.556Z,4.03
2022-09-21T02:46:54.310Z,4.53
2022-09-21T02:49:24.377Z,3.25
2022-09-21T02:51:53.399Z,6.03
2022-09-21T02:54:23.205Z,4.75
2022-09-21T02:56:52.663Z,5.18
2022-09-21T02:59:23.557Z,3.60
2022-09-21T03:01:53.063Z,3.80
2022-09-21T03:04:21.413Z,5.57
2022-09-21T03:06:49.452Z,3.65
2022-09-21T03:09:17.609Z,8.30
2022-09-21T03:11:45.640Z,3.28
2022-09-21T03:14:14.132Z,2.97
2022-09-21T03:16:42.163Z,5.25
2022-09-21T03:19:12.037Z,5.47
2022-09-21T03:21:44.338Z,5.10
2022-09-21T03:24:12.779Z,3.65
2022-09-21T03:26:40.927Z,4.45
2022-09-21T03:29:08.940Z,6.70
2022-09-21T03:31:36.964Z,6.53
2022-09-21T03:34:05.073Z,11.98
2022-09-21T03:36:34.486Z,4.68
2022-09-21T03:39:02.537Z,4.95
2022-09-21T03:41:30.613Z,4.00
2022-09-21T03:43:58.671Z,5.32
2022-09-21T03:46:26.889Z,2.97
2022-09-21T03:48:55.146Z,5.78
2022-09-21T03:51:23.619Z,3.40
2022-09-21T03:53:53.071Z,3.50
2022-09-21T03:56:21.132Z,3.95
2022-09-21T03:58:49.180Z,4.05
2022-09-21T04:01:17.266Z,3.75
2022-09-21T04:03:45.446Z,4.68
2022-09-21T04:06:13.828Z,2.80
2022-09-21T04:08:43.677Z,5.40
2022-09-21T04:11:13.556Z,3.72
2022-09-21T04:13:42.540Z,3.35
2022-09-21T04:16:10.806Z,2.90
2022-09-21T04:18:38.966Z,3.40
2022-09-21T04:21:07.276Z,3.88
2022-09-21T04:23:35.710Z,4.18
2022-09-21T04:26:03.755Z,3.83
2022-09-21T04:28:33.718Z,5.78
2022-09-21T04:31:01.865Z,3.03
2022-09-21T04:33:30.165Z,4.90
2022-09-21T04:35:58.817Z,3.60
2022-09-21T04:38:26.856Z,5.97
2022-09-21T04:40:58.169Z,3.22
2022-09-21T04:43:26.219Z,4.18
2022-09-21T04:45:55.665Z,5.05
2022-09-21T04:48:23.723Z,3.15
2022-09-21T04:50:51.917Z,3.53
2022-09-21T04:53:19.986Z,3.55
2022-09-21T04:55:48.014Z,4.45
2022-09-21T04:58:16.135Z,3.17
2022-09-21T05:00:44.203Z,3.38
2022-09-21T05:03:13.707Z,5.22
2022-09-21T05:05:46.948Z,3.17
2022-09-21T05:08:14.992Z,2.63
2022-09-21T05:10:42.045Z,4.30
2022-09-21T05:13:10.093Z,3.00
2022-09-21T05:15:39.315Z,3.60
2022-09-21T05:18:07.393Z,5.03
2022-09-21T05:20:36.790Z,4.60
2022-09-21T05:23:04.837Z,8.07
2022-09-21T05:25:32.903Z,7.57
2022-09-21T05:28:01.363Z,7.80
2022-09-21T05:30:29.954Z,7.55
2022-09-21T05:32:59.518Z,7.88
2022-09-21T05:35:29.905Z,8.80
2022-09-21T05:38:02.438Z,16.90
2022-09-21T05:40:31.017Z,18.77
2022-09-21T05:42:59.659Z,23.88
2022-09-21T05:45:29.063Z,19.45
2022-09-21T05:48:06.874Z,25.70
2022-09-21T05:50:57.311Z,30.98
2022-09-21T05:53:55.971Z,18.30
2022-09-21T05:56:35.150Z,31.08
2022-09-21T05:59:08.927Z,24.15
2022-09-21T06:01:55.709Z,26.75
2022-09-21T06:04:24.279Z,28.20
2022-09-21T06:06:52.549Z,29.10
2022-09-21T06:09:22.203Z,29.13
2022-09-21T06:11:50.290Z,31.48
2022-09-21T06:14:24.514Z,32.40
2022-09-21T06:16:52.786Z,28.90
2022-09-21T06:19:20.957Z,24.08
2022-09-21T06:21:49.013Z,23.27
2022-09-21T06:24:17.059Z,32.13
2022-09-21T06:26:46.465Z,28.58
2022-09-21T06:29:14.555Z,29.80
2022-09-21T06:31:42.985Z,28.45
2022-09-21T06:34:11.270Z,28.55
2022-09-21T06:36:39.311Z,24.48
2022-09-21T06:39:07.368Z,23.20
2022-09-21T06:41:35.405Z,24.95
2022-09-21T06:44:05.136Z,24.40
2022-09-21T06:46:33.252Z,31.35
2022-09-21T06:49:01.348Z,21.73
2022-09-21T06:51:29.379Z,33.95
2022-09-21T06:53:57.947Z,33.30
2022-09-21T06:56:26.137Z,21.30
2022-09-21T06:58:54.722Z,22.40
2022-09-21T07:01:24.642Z,22.92
2022-09-21T07:03:52.907Z,21.25
2022-09-21T07:06:20.957Z,18.05
2022-09-21T07:11:37.568Z,22.20
2022-09-21T07:14:06.614Z,24.50
2022-09-21T07:16:36.229Z,24.10
2022-09-21T07:19:11.192Z,22.58
2022-09-21T07:21:39.686Z,21.48
2022-09-21T07:24:11.930Z,20.52
2022-09-21T07:26:40.697Z,22.50
2022-09-21T07:29:08.842Z,17.98
2022-09-21T07:31:38.350Z,20.63
2022-09-21T07:34:06.460Z,20.98
2022-09-21T07:36:34.552Z,21.33
2022-09-21T07:39:03.161Z,17.58
2022-09-21T07:41:31.201Z,21.23
2022-09-21T07:43:59.334Z,21.60
2022-09-21T07:46:27.425Z,17.40
2022-09-21T07:48:57.109Z,15.65
2022-09-21T07:51:25.434Z,14.52
2022-09-21T07:53:56.724Z,15.65
2022-09-21T07:56:24.810Z,15.35
2022-09-21T07:59:06.653Z,12.65
2022-09-21T08:01:35.024Z,13.90
2022-09-21T08:04:05.190Z,15.68
2022-09-21T08:06:33.564Z,13.18
2022-09-21T08:09:01.745Z,15.05
2022-09-21T08:11:30.597Z,12.50
2022-09-21T08:14:00.066Z,12.13
2022-09-21T08:16:29.177Z,12.65
2022-09-21T08:18:57.411Z,10.18
2022-09-21T08:21:27.295Z,12.98
2022-09-21T08:23:55.347Z,13.30
2022-09-21T08:26:24.675Z,11.25
2022-09-21T08:28:53.442Z,14.05
2022-09-21T08:31:23.140Z,13.60
2022-09-21T08:33:51.431Z,15.05
2022-09-21T08:36:19.866Z,10.25
2022-09-21T08:38:50.834Z,13.05
2022-09-21T08:41:19.937Z,13.82
2022-09-21T08:43:50.093Z,13.20
2022-09-21T08:46:20.031Z,12.25
2022-09-21T08:48:51.069Z,11.38
2022-09-21T08:51:23.234Z,14.65
2022-09-21T08:53:53.786Z,10.82
2022-09-21T08:56:21.828Z,12.18
2022-09-21T08:58:50.070Z,12.15
2022-09-21T09:01:33.093Z,11.30
2022-09-21T09:04:26.096Z,8.55
2022-09-21T09:06:59.509Z,9.40
2022-09-21T09:09:48.612Z,14.38
2022-09-21T09:12:22.135Z,7.97
2022-09-21T09:14:59.716Z,8.02
2022-09-21T09:17:35.327Z,10.00
2022-09-21T09:20:04.650Z,10.13
2022-09-21T09:22:35.527Z,6.72
2022-09-21T09:25:06.877Z,10.07
2022-09-21T09:27:36.284Z,9.43
2022-09-21T09:30:05.588Z,9.52
2022-09-21T09:32:37.181Z,8.63
2022-09-21T09:35:08.489Z,11.45
2022-09-21T09:37:37.925Z,7.70
2022-09-21T09:40:08.752Z,6.38
2022-09-21T09:42:45.040Z,8.80
2022-09-21T09:45:23.598Z,8.65
2022-09-21T09:48:01.080Z,9.20
2022-09-21T09:50:29.821Z,7.88
2022-09-21T09:53:00.885Z,6.90
2022-09-21T09:55:37.478Z,7.97
2022-09-21T09:58:05.543Z,8.55
2022-09-21T10:00:33.756Z,7.82
2022-09-21T10:03:01.875Z,6.07
2022-09-21T10:05:33.717Z,7.60
2022-09-21T10:08:02.300Z,8.32
2022-09-21T10:10:36.654Z,7.13
2022-09-21T10:13:09.814Z,8.98
2022-09-21T10:15:43.851Z,7.30
2022-09-21T10:18:21.213Z,5.95
2022-09-21T10:20:56.505Z,4.75
2022-09-21T10:23:24.625Z,6.80
2022-09-21T10:25:58.899Z,6.32
2022-09-21T10:28:26.919Z,6.10
2022-09-21T10:31:10.216Z,8.18
2022-09-21T10:33:48.784Z,8.63
2022-09-21T10:36:31.079Z,7.10
2022-09-21T10:39:21.571Z,7.30
2022-09-21T10:41:55.876Z,8.02
2022-09-21T10:44:24.910Z,11.73
2022-09-21T10:46:53.121Z,8.38
2022-09-21T10:49:23.238Z,7.68
2022-09-21T10:51:52.483Z,9.38
2022-09-21T10:54:23.666Z,8.27
2022-09-21T10:56:54.677Z,9.38
2022-09-21T10:59:25.132Z,8.13
2022-09-21T11:01:53.984Z,8.15
2022-09-21T11:04:28.027Z,8.43
2022-09-21T11:06:58.604Z,7.22
2022-09-21T11:09:29.337Z,8.77
2022-09-21T11:12:00.677Z,9.52
2022-09-21T11:14:43.764Z,9.15
2022-09-21T11:17:15.138Z,8.93
2022-09-21T11:19:45.227Z,8.63
2022-09-21T11:22:16.626Z,8.88
2022-09-21T11:24:48.400Z,8.65
2022-09-21T11:27:19.811Z,8.52
2022-09-21T11:29:53.641Z,8.93
2022-09-21T11:32:32.317Z,7.22
2022-09-21T11:35:28.995Z,9.27
2022-09-21T11:38:05.256Z,7.85
2022-09-21T11:41:11.740Z,9.63
2022-09-21T11:43:49.089Z,6.55
2022-09-21T11:46:22.646Z,9.30
2022-09-21T11:48:57.389Z,7.50
2022-09-21T11:51:38.042Z,7.72
2022-09-21T11:54:17.542Z,6.63
2022-09-21T11:56:47.984Z,8.55
2022-09-21T11:59:42.363Z,8.00
2022-09-21T12:02:32.182Z,7.68
2022-09-21T12:05:03.887Z,7.28
2022-09-21T12:07:40.040Z,8.60
2022-09-21T12:10:45.074Z,7.90
2022-09-21T12:13:19.067Z,9.20
2022-09-21T12:15:51.577Z,7.68
2022-09-21T12:18:22.365Z,6.88
2022-09-21T12:20:54.634Z,7.00
2022-09-21T12:23:24.458Z,7.40
2022-09-21T12:25:53.855Z,6.90
2022-09-21T12:28:23.735Z,7.43
2022-09-21T12:30:59.750Z,6.45
2022-09-21T12:33:34.137Z,9.35
2022-09-21T12:36:04.868Z,7.45
2022-09-21T12:38:34.808Z,8.35
2022-09-21T12:41:05.861Z,6.82
2022-09-21T12:43:36.455Z,6.35
2022-09-21T12:46:08.979Z,5.80
2022-09-21T12:48:39.024Z,6.03
2022-09-21T12:51:12.695Z,8.48
2022-09-21T12:53:43.792Z,6.40
2022-09-21T12:56:14.078Z,6.60
2022-09-21T12:58:50.821Z,6.47
2022-09-21T13:01:28.497Z,11.63
2022-09-21T13:04:12.838Z,11.73
2022-09-21T13:07:07.543Z,11.23
2022-09-21T13:09:35.689Z,15.38
2022-09-21T13:12:10.498Z,8.85
2022-09-21T13:14:42.887Z,8.02
2022-09-21T13:17:21.163Z,6.43
2022-09-21T13:19:57.652Z,7.95
2022-09-21T13:22:26.473Z,13.55
2022-09-21T13:25:02.973Z,6.68
2022-09-21T13:28:07.636Z,9.25
2022-09-21T13:30:37.976Z,11.93
2022-09-21T13:33:39.030Z,7.82
2022-09-21T13:36:31.696Z,9.93
2022-09-21T13:39:13.843Z,12.30
2022-09-21T13:42:06.401Z,8.98
2022-09-21T13:44:42.127Z,7.45
2022-09-21T13:47:11.450Z,8.27
2022-09-21T13:49:50.956Z,9.68
2022-09-21T13:52:28.459Z,6.55
2022-09-21T13:54:58.753Z,10.40
2022-09-21T13:57:32.189Z,8.48
2022-09-21T14:00:30.871Z,11.30
2022-09-21T14:03:04.220Z,6.70
2022-09-21T14:05:36.417Z,7.15
2022-09-21T14:08:06.516Z,6.45
2022-09-21T14:10:36.487Z,7.38
2022-09-21T14:13:07.413Z,5.75
2022-09-21T14:15:40.318Z,6.28
2022-09-21T14:18:36.690Z,7.15
2022-09-21T14:21:19.478Z,10.85
2022-09-21T14:24:10.184Z,7.80
2022-09-21T14:26:48.566Z,9.27
2022-09-21T14:29:18.087Z,5.03
2022-09-21T14:31:46.179Z,7.63
2022-09-21T14:34:18.517Z,5.60
2022-09-21T14:36:50.065Z,6.22
2022-09-21T14:39:18.822Z,5.35
2022-09-21T14:41:47.521Z,6.63
2022-09-21T14:44:20.000Z,5.75
2022-09-21T14:47:17.763Z,5.18
2022-09-21T14:50:00.756Z,6.22
2022-09-21T14:52:38.235Z,8.73
2022-09-21T14:55:17.011Z,4.78
2022-09-21T14:57:53.656Z,5.53
2022-09-21T15:00:23.493Z,6.75
2022-09-21T15:03:03.669Z,7.32
2022-09-21T15:05:32.779Z,6.20
2022-09-21T15:08:35.969Z,5.07
2022-09-21T15:11:07.999Z,9.23
2022-09-21T15:13:53.495Z,6.30
2022-09-21T15:16:27.875Z,12.02
2022-09-21T15:19:14.191Z,9.50
2022-09-21T15:21:44.404Z,9.85
2022-09-21T15:24:23.112Z,9.38
2022-09-21T15:26:52.302Z,8.75
2022-09-21T15:29:25.586Z,10.90
2022-09-21T15:31:53.785Z,5.60
2022-09-21T15:34:22.241Z,5.35
2022-09-21T15:36:52.280Z,6.00
2022-09-21T15:39:26.312Z,11.88
2022-09-21T15:42:18.002Z,6.47
2022-09-21T15:44:48.759Z,11.80
2022-09-21T15:47:18.220Z,8.88
2022-09-21T15:49:46.714Z,14.30
2022-09-21T15:52:19.109Z,6.10
2022-09-21T15:54:52.179Z,13.30
2022-09-21T15:57:38.278Z,9.38
2022-09-21T16:00:09.274Z,7.60
2022-09-21T16:02:38.531Z,6.15
2022-09-21T16:05:07.382Z,16.02
2022-09-21T16:07:36.311Z,6.25
2022-09-21T16:10:28.031Z,8.23
2022-09-21T16:13:01.269Z,11.77
2022-09-21T16:15:30.044Z,6.20
2022-09-21T16:18:01.532Z,8.52
2022-09-21T16:20:41.087Z,7.72
2022-09-21T16:23:13.913Z,6.40
2022-09-21T16:25:43.450Z,10.63
2022-09-21T16:28:35.221Z,4.00
2022-09-21T16:31:49.863Z,7.88
2022-09-21T16:34:36.763Z,7.25
2022-09-21T16:37:24.376Z,5.05
2022-09-21T16:39:53.018Z,10.48
2022-09-21T16:42:22.659Z,5.53
2022-09-21T16:44:50.829Z,7.60
2022-09-21T16:47:21.329Z,5.22
2022-09-21T16:49:49.401Z,5.65
2022-09-21T16:52:18.142Z,5.68
2022-09-21T16:54:47.650Z,4.63
2022-09-21T16:57:15.704Z,4.00
2022-09-21T16:59:45.217Z,4.68
2022-09-21T17:02:14.080Z,7.35
2022-09-21T17:04:42.315Z,6.97
2022-09-21T17:07:11.916Z,5.55
2022-09-21T17:09:42.207Z,10.25
2022-09-21T17:12:11.364Z,10.15
2022-09-21T17:14:44.323Z,9.40
2022-09-21T17:17:18.423Z,7.88
2022-09-21T17:19:46.944Z,4.78
2022-09-21T17:22:17.209Z,12.93
2022-09-21T17:24:50.896Z,5.55
2022-09-21T17:27:21.179Z,4.65
2022-09-21T17:29:49.674Z,6.63
2022-09-21T17:32:21.263Z,4.72
2022-09-21T17:34:53.328Z,7.40
2022-09-21T17:37:22.046Z,5.05
2022-09-21T17:39:50.928Z,4.75
2022-09-21T17:42:21.120Z,3.97
2022-09-21T17:45:12.842Z,6.45
2022-09-21T17:47:42.882Z,5.25
2022-09-21T17:50:22.947Z,5.20
2022-09-21T17:53:09.142Z,5.70
2022-09-21T17:55:37.621Z,5.18
2022-09-21T17:58:19.379Z,11.00
2022-09-21T18:00:52.673Z,3.88
2022-09-21T18:03:24.451Z,7.60
2022-09-21T18:05:57.272Z,10.98
2022-09-21T18:08:27.046Z,4.75
2022-09-21T18:11:02.485Z,6.80
2022-09-21T18:13:34.876Z,10.75
2022-09-21T18:16:11.466Z,10.52
2022-09-21T18:18:45.248Z,7.43
2022-09-21T18:21:18.385Z,5.70
2022-09-21T18:23:54.235Z,5.78
2022-09-21T18:26:23.471Z,7.95
2022-09-21T18:28:57.084Z,6.20
2022-09-21T18:31:43.038Z,4.68
2022-09-21T18:34:22.678Z,9.20
2022-09-21T18:36:55.634Z,6.30
2022-09-21T18:39:28.438Z,5.53
2022-09-21T18:42:10.343Z,5.45
2022-09-21T18:44:40.597Z,5.20
2022-09-21T18:47:11.928Z,6.05
2022-09-21T18:49:48.563Z,7.28
2022-09-21T18:52:22.332Z,4.32
2022-09-21T18:54:51.047Z,6.03
2022-09-21T18:57:19.558Z,5.15
2022-09-21T18:59:48.218Z,5.22
2022-09-21T19:02:20.094Z,5.57
2022-09-21T19:04:50.574Z,5.13
2022-09-21T19:07:25.280Z,6.60
2022-09-21T19:09:58.704Z,4.22
2022-09-21T19:12:31.038Z,7.65
2022-09-21T19:15:08.942Z,6.05
2022-09-21T19:17:47.430Z,4.93
2022-09-21T19:20:28.510Z,5.22
2022-09-21T19:23:01.218Z,6.95
2022-09-21T19:25:31.184Z,5.72
2022-09-21T19:28:01.712Z,3.78
2022-09-21T19:30:30.420Z,4.18
2022-09-21T19:33:01.514Z,4.65
2022-09-21T19:35:32.171Z,4.55
2022-09-21T19:38:01.441Z,3.70
2022-09-21T19:40:32.226Z,3.83
2022-09-21T19:43:14.121Z,4.30
2022-09-21T19:45:48.791Z,5.68
2022-09-21T19:48:17.755Z,5.60
2022-09-21T19:50:49.710Z,2.97
2022-09-21T19:53:35.919Z,3.15
2022-09-21T19:56:22.214Z,5.15
2022-09-21T19:59:08.177Z,2.63
2022-09-21T20:01:37.037Z,4.50
2022-09-21T20:04:06.263Z,3.45
2022-09-21T20:06:38.787Z,7.85
2022-09-21T20:09:10.918Z,10.15
2022-09-21T20:11:43.014Z,5.30
2022-09-21T20:14:17.480Z,4.22
2022-09-21T20:16:52.503Z,4.63
2022-09-21T20:19:32.886Z,7.28
2022-09-21T20:22:04.875Z,3.75
2022-09-21T20:24:35.536Z,5.53
2022-09-21T20:27:04.256Z,3.63
2022-09-21T20:29:32.364Z,4.45
2022-09-21T20:32:00.952Z,4.70
2022-09-21T20:34:29.012Z,5.90
2022-09-21T20:36:57.075Z,9.93
2022-09-21T20:39:26.475Z,3.45
2022-09-21T20:41:54.536Z,3.53
2022-09-21T20:44:22.657Z,3.72
2022-09-21T20:46:50.785Z,4.25
2022-09-21T20:49:19.773Z,3.00
2022-09-21T20:51:48.723Z,4.80
2022-09-21T20:54:17.267Z,9.23
2022-09-21T20:56:46.919Z,6.15
2022-09-21T20:59:15.268Z,8.27
2022-09-21T21:01:43.434Z,6.90
2022-09-21T21:04:12.529Z,6.65
2022-09-21T21:06:40.687Z,6.95
2022-09-21T21:09:08.751Z,4.50
2022-09-21T21:11:36.843Z,6.07
2022-09-21T21:14:06.253Z,4.80
2022-09-21T21:16:34.380Z,4.25
2022-09-21T21:19:02.562Z,6.07
2022-09-21T21:21:30.617Z,4.80
2022-09-21T21:24:16.190Z,4.82
2022-09-21T21:27:01.298Z,6.20
2022-09-21T21:29:32.138Z,10.80
2022-09-21T21:32:00.605Z,5.85
2022-09-21T21:34:28.948Z,6.97
2022-09-21T21:36:57.059Z,4.47
2022-09-21T21:39:25.135Z,9.55
2022-09-21T21:41:53.208Z,14.73
2022-09-21T21:44:21.531Z,12.25
2022-09-21T21:46:53.294Z,12.90
2022-09-21T21:49:21.449Z,11.40
2022-09-21T21:51:50.389Z,11.52
2022-09-21T21:54:18.917Z,14.73
2022-09-21T21:56:47.012Z,9.95
2022-09-21T21:59:17.781Z,8.57
2022-09-21T22:01:46.226Z,9.63
2022-09-21T22:04:15.725Z,12.23
2022-09-21T22:06:43.850Z,16.40
2022-09-21T22:09:12.073Z,8.27
2022-09-21T22:11:40.290Z,10.90
2022-09-21T22:14:08.661Z,11.82
2022-09-21T22:16:37.737Z,11.82
2022-09-21T22:19:06.487Z,7.80
2022-09-21T22:21:39.330Z,9.48
2022-09-21T22:24:07.845Z,9.90
2022-09-21T22:26:37.313Z,10.13
2022-09-21T22:29:06.109Z,9.82
2022-09-21T22:31:35.293Z,7.65
2022-09-21T22:34:03.522Z,10.85
2022-09-21T22:36:32.322Z,8.68
2022-09-21T22:39:02.024Z,7.47
2022-09-21T22:41:31.160Z,9.45
2022-09-21T22:43:59.736Z,5.50
2022-09-21T22:46:28.488Z,7.38
2022-09-21T22:48:56.636Z,6.75
2022-09-21T22:51:24.699Z,3.83
2022-09-21T22:53:52.984Z,6.80
2022-09-21T22:56:23.186Z,5.90
2022-09-21T22:58:52.396Z,5.03
2022-09-21T23:01:21.685Z,9.27
2022-09-21T23:03:50.372Z,6.18
2022-09-21T23:06:19.172Z,6.50
2022-09-21T23:08:49.942Z,9.93
2022-09-21T23:11:19.457Z,6.82
2022-09-21T23:13:49.106Z,6.60
2022-09-21T23:16:17.601Z,10.35
2022-09-21T23:18:45.831Z,5.25
2022-09-21T23:21:15.859Z,7.32
2022-09-21T23:23:44.006Z,5.90
2022-09-21T23:26:12.994Z,7.22
2022-09-21T23:28:41.924Z,4.47
2022-09-21T23:31:12.201Z,5.30
2022-09-21T23:33:41.182Z,6.85
2022-09-21T23:36:10.028Z,5.95
2022-09-21T23:38:38.263Z,7.93
2022-09-21T23:41:07.422Z,4.85
2022-09-21T23:43:35.831Z,8.18
2022-09-21T23:46:03.934Z,5.20
2022-09-21T23:48:33.394Z,8.32
2022-09-21T23:51:01.491Z,5.10
2022-09-21T23:53:29.527Z,11.60
2022-09-21T23:55:57.681Z,5.00
2022-09-21T23:58:25.855Z,4.95
